sensor_id;sensor_type;location;lat;lon;timestamp;P1;durP1;ratioP1;P2;durP2;ratioP2
18929;SDS011;43305;52.186;5.598;2022-11-15T00:01:43;55.35;;;22.55;;
18929;SDS011;43305;52.186;5.598;2022-11-15T00:04:12;58.72;;;23.40;;
18929;SDS011;43305;52.186;5.598;2022-11-15T00:06:43;64.32;;;24.60;;
18929;SDS011;43305;52.186;5.598;2022-11-15T00:09:28;58.28;;;23.58;;
18929;SDS011;43305;52.186;5.598;2022-11-15T00:11:57;63.50;;;25.33;;
18929;SDS011;43305;52.186;5.598;2022-11-15T00:14:27;60.90;;;25.30;;
18929;SDS011;43305;52.186;5.598;2022-11-15T00:16:57;65.18;;;25.02;;
18929;SDS011;43305;52.186;5.598;2022-11-15T00:19:27;64.97;;;24.60;;
18929;SDS011;43305;52.186;5.598;2022-11-15T00:21:53;70.22;;;25.38;;
18929;SDS011;43305;52.186;5.598;2022-11-15T00:24:24;70.05;;;26.13;;
18929;SDS011;43305;52.186;5.598;2022-11-15T00:26:54;65.72;;;26.45;;
18929;SDS011;43305;52.186;5.598;2022-11-15T00:29:20;74.07;;;26.77;;
18929;SDS011;43305;52.186;5.598;2022-11-15T00:31:49;71.18;;;25.85;;
18929;SDS011;43305;52.186;5.598;2022-11-15T00:34:17;66.55;;;26.15;;
18929;SDS011;43305;52.186;5.598;2022-11-15T00:36:48;68.85;;;27.33;;
18929;SDS011;43305;52.186;5.598;2022-11-15T00:39:20;77.78;;;27.10;;
18929;SDS011;43305;52.186;5.598;2022-11-15T00:41:51;76.18;;;27.88;;
18929;SDS011;43305;52.186;5.598;2022-11-15T00:44:19;77.25;;;27.40;;
18929;SDS011;43305;52.186;5.598;2022-11-15T00:46:50;82.10;;;28.05;;
18929;SDS011;43305;52.186;5.598;2022-11-15T00:49:20;82.22;;;28.20;;
18929;SDS011;43305;52.186;5.598;2022-11-15T00:51:50;87.53;;;28.02;;
18929;SDS011;43305;52.186;5.598;2022-11-15T00:54:19;93.53;;;29.20;;
18929;SDS011;43305;52.186;5.598;2022-11-15T00:56:45;95.55;;;29.98;;
18929;SDS011;43305;52.186;5.598;2022-11-15T00:59:16;94.40;;;29.40;;
18929;SDS011;43305;52.186;5.598;2022-11-15T01:01:48;92.45;;;30.42;;
18929;SDS011;43305;52.186;5.598;2022-11-15T01:04:19;100.15;;;31.35;;
18929;SDS011;43305;52.186;5.598;2022-11-15T01:06:49;101.50;;;31.25;;
18929;SDS011;43305;52.186;5.598;2022-11-15T01:09:16;98.10;;;31.65;;
18929;SDS011;43305;52.186;5.598;2022-11-15T01:11:43;102.00;;;31.90;;
18929;SDS011;43305;52.186;5.598;2022-11-15T01:14:13;91.55;;;30.52;;
18929;SDS011;43305;52.186;5.598;2022-11-15T01:16:49;100.43;;;31.77;;
18929;SDS011;43305;52.186;5.598;2022-11-15T01:19:15;98.95;;;32.60;;
18929;SDS011;43305;52.186;5.598;2022-11-15T01:21:44;95.05;;;30.27;;
18929;SDS011;43305;52.186;5.598;2022-11-15T01:24:14;91.25;;;31.42;;
18929;SDS011;43305;52.186;5.598;2022-11-15T01:26:40;91.80;;;31.60;;
18929;SDS011;43305;52.186;5.598;2022-11-15T01:29:13;99.45;;;31.98;;
18929;SDS011;43305;52.186;5.598;2022-11-15T01:31:39;98.72;;;32.05;;
18929;SDS011;43305;52.186;5.598;2022-11-15T01:34:06;92.10;;;31.45;;
18929;SDS011;43305;52.186;5.598;2022-11-15T01:36:33;84.32;;;30.02;;
18929;SDS011;43305;52.186;5.598;2022-11-15T01:39:07;87.78;;;30.00;;
18929;SDS011;43305;52.186;5.598;2022-11-15T01:41:40;88.18;;;29.52;;
18929;SDS011;43305;52.186;5.598;2022-11-15T01:47:04;86.22;;;30.45;;
18929;SDS011;43305;52.186;5.598;2022-11-15T01:49:35;88.75;;;31.38;;
18929;SDS011;43305;52.186;5.598;2022-11-15T01:52:07;91.80;;;32.22;;
18929;SDS011;43305;52.186;5.598;2022-11-15T01:54:39;82.70;;;30.55;;
18929;SDS011;43305;52.186;5.598;2022-11-15T01:57:16;90.57;;;31.67;;
18929;SDS011;43305;52.186;5.598;2022-11-15T01:59:43;84.00;;;31.35;;
18929;SDS011;43305;52.186;5.598;2022-11-15T02:02:14;82.15;;;30.92;;
18929;SDS011;43305;52.186;5.598;2022-11-15T02:04:46;93.03;;;32.05;;
18929;SDS011;43305;52.186;5.598;2022-11-15T02:07:15;84.38;;;31.52;;
18929;SDS011;43305;52.186;5.598;2022-11-15T02:09:47;91.05;;;32.47;;
18929;SDS011;43305;52.186;5.598;2022-11-15T02:12:15;89.63;;;31.30;;
18929;SDS011;43305;52.186;5.598;2022-11-15T02:14:54;85.03;;;30.85;;
18929;SDS011;43305;52.186;5.598;2022-11-15T02:17:29;91.28;;;32.15;;
18929;SDS011;43305;52.186;5.598;2022-11-15T02:20:27;81.10;;;32.17;;
18929;SDS011;43305;52.186;5.598;2022-11-15T02:23:15;81.90;;;31.02;;
18929;SDS011;43305;52.186;5.598;2022-11-15T02:26:07;80.38;;;31.00;;
18929;SDS011;43305;52.186;5.598;2022-11-15T02:29:01;93.03;;;31.80;;
18929;SDS011;43305;52.186;5.598;2022-11-15T02:31:41;87.15;;;31.92;;
18929;SDS011;43305;52.186;5.598;2022-11-15T02:34:16;84.65;;;32.25;;
18929;SDS011;43305;52.186;5.598;2022-11-15T02:36:54;88.28;;;33.10;;
18929;SDS011;43305;52.186;5.598;2022-11-15T02:39:34;87.35;;;32.13;;
18929;SDS011;43305;52.186;5.598;2022-11-15T02:42:07;91.75;;;34.35;;
18929;SDS011;43305;52.186;5.598;2022-11-15T02:44:52;98.25;;;35.00;;
18929;SDS011;43305;52.186;5.598;2022-11-15T02:47:29;90.50;;;34.30;;
18929;SDS011;43305;52.186;5.598;2022-11-15T02:50:06;92.72;;;34.08;;
18929;SDS011;43305;52.186;5.598;2022-11-15T02:52:34;81.65;;;33.83;;
18929;SDS011;43305;52.186;5.598;2022-11-15T02:57:59;86.88;;;33.42;;
18929;SDS011;43305;52.186;5.598;2022-11-15T03:00:40;80.50;;;32.78;;
18929;SDS011;43305;52.186;5.598;2022-11-15T03:03:20;78.53;;;33.47;;
18929;SDS011;43305;52.186;5.598;2022-11-15T03:06:05;80.97;;;34.28;;
18929;SDS011;43305;52.186;5.598;2022-11-15T03:08:43;70.25;;;31.10;;
18929;SDS011;43305;52.186;5.598;2022-11-15T03:11:21;81.38;;;32.47;;
18929;SDS011;43305;52.186;5.598;2022-11-15T03:13:55;75.90;;;31.90;;
18929;SDS011;43305;52.186;5.598;2022-11-15T03:16:27;75.30;;;32.22;;
18929;SDS011;43305;52.186;5.598;2022-11-15T03:18:59;71.25;;;31.70;;
18929;SDS011;43305;52.186;5.598;2022-11-15T03:21:31;74.78;;;31.58;;
18929;SDS011;43305;52.186;5.598;2022-11-15T03:24:02;79.75;;;31.80;;
18929;SDS011;43305;52.186;5.598;2022-11-15T03:26:32;73.65;;;31.05;;
18929;SDS011;43305;52.186;5.598;2022-11-15T03:29:02;71.85;;;30.77;;
18929;SDS011;43305;52.186;5.598;2022-11-15T03:31:38;78.95;;;30.70;;
18929;SDS011;43305;52.186;5.598;2022-11-15T03:34:25;69.40;;;29.88;;
18929;SDS011;43305;52.186;5.598;2022-11-15T03:37:00;72.82;;;30.63;;
18929;SDS011;43305;52.186;5.598;2022-11-15T03:39:28;72.38;;;31.70;;
18929;SDS011;43305;52.186;5.598;2022-11-15T03:41:57;70.55;;;30.88;;
18929;SDS011;43305;52.186;5.598;2022-11-15T03:44:35;75.07;;;31.38;;
18929;SDS011;43305;52.186;5.598;2022-11-15T03:47:07;74.20;;;32.78;;
18929;SDS011;43305;52.186;5.598;2022-11-15T03:49:40;80.15;;;33.20;;
18929;SDS011;43305;52.186;5.598;2022-11-15T03:52:12;74.00;;;30.92;;
18929;SDS011;43305;52.186;5.598;2022-11-15T03:54:50;74.70;;;32.00;;
18929;SDS011;43305;52.186;5.598;2022-11-15T03:57:19;75.18;;;32.80;;
18929;SDS011;43305;52.186;5.598;2022-11-15T03:59:48;72.72;;;32.88;;
18929;SDS011;43305;52.186;5.598;2022-11-15T04:02:15;77.68;;;32.22;;
18929;SDS011;43305;52.186;5.598;2022-11-15T04:04:43;79.07;;;32.97;;
18929;SDS011;43305;52.186;5.598;2022-11-15T04:07:15;76.93;;;32.38;;
18929;SDS011;43305;52.186;5.598;2022-11-15T04:09:42;72.50;;;32.53;;
18929;SDS011;43305;52.186;5.598;2022-11-15T04:12:23;78.85;;;33.53;;
18929;SDS011;43305;52.186;5.598;2022-11-15T04:14:58;80.82;;;32.80;;
18929;SDS011;43305;52.186;5.598;2022-11-15T04:17:33;81.00;;;33.47;;
18929;SDS011;43305;52.186;5.598;2022-11-15T04:20:03;75.32;;;32.80;;
18929;SDS011;43305;52.186;5.598;2022-11-15T04:22:44;74.35;;;34.13;;
18929;SDS011;43305;52.186;5.598;2022-11-15T04:25:25;76.30;;;33.10;;
18929;SDS011;43305;52.186;5.598;2022-11-15T04:27:51;76.88;;;33.00;;
18929;SDS011;43305;52.186;5.598;2022-11-15T04:30:19;75.18;;;33.65;;
18929;SDS011;43305;52.186;5.598;2022-11-15T04:32:46;69.82;;;32.38;;
18929;SDS011;43305;52.186;5.598;2022-11-15T04:35:14;75.35;;;33.45;;
18929;SDS011;43305;52.186;5.598;2022-11-15T04:37:40;76.53;;;32.33;;
18929;SDS011;43305;52.186;5.598;2022-11-15T04:40:07;70.95;;;31.15;;
18929;SDS011;43305;52.186;5.598;2022-11-15T04:42:34;70.72;;;32.38;;
18929;SDS011;43305;52.186;5.598;2022-11-15T04:45:01;70.60;;;32.90;;
18929;SDS011;43305;52.186;5.598;2022-11-15T04:47:28;68.13;;;31.73;;
18929;SDS011;43305;52.186;5.598;2022-11-15T04:49:55;71.38;;;31.80;;
18929;SDS011;43305;52.186;5.598;2022-11-15T04:52:23;71.30;;;31.77;;
18929;SDS011;43305;52.186;5.598;2022-11-15T04:54:52;73.68;;;31.10;;
18929;SDS011;43305;52.186;5.598;2022-11-15T04:57:19;74.03;;;30.67;;
18929;SDS011;43305;52.186;5.598;2022-11-15T04:59:46;62.15;;;30.27;;
18929;SDS011;43305;52.186;5.598;2022-11-15T05:02:13;63.53;;;29.95;;
18929;SDS011;43305;52.186;5.598;2022-11-15T05:04:39;63.78;;;30.55;;
18929;SDS011;43305;52.186;5.598;2022-11-15T05:07:05;61.50;;;30.05;;
18929;SDS011;43305;52.186;5.598;2022-11-15T05:09:37;60.83;;;28.90;;
18929;SDS011;43305;52.186;5.598;2022-11-15T05:12:03;58.75;;;29.00;;
18929;SDS011;43305;52.186;5.598;2022-11-15T05:14:30;62.20;;;29.63;;
18929;SDS011;43305;52.186;5.598;2022-11-15T05:16:57;55.65;;;27.77;;
18929;SDS011;43305;52.186;5.598;2022-11-15T05:19:24;57.35;;;29.02;;
18929;SDS011;43305;52.186;5.598;2022-11-15T05:21:50;64.88;;;30.05;;
18929;SDS011;43305;52.186;5.598;2022-11-15T05:24:17;61.67;;;29.33;;
18929;SDS011;43305;52.186;5.598;2022-11-15T05:26:45;57.35;;;29.13;;
18929;SDS011;43305;52.186;5.598;2022-11-15T05:29:12;67.00;;;31.50;;
18929;SDS011;43305;52.186;5.598;2022-11-15T05:31:39;64.78;;;29.80;;
18929;SDS011;43305;52.186;5.598;2022-11-15T05:34:07;59.40;;;28.73;;
18929;SDS011;43305;52.186;5.598;2022-11-15T05:36:34;57.97;;;28.60;;
18929;SDS011;43305;52.186;5.598;2022-11-15T05:39:03;61.35;;;28.73;;
18929;SDS011;43305;52.186;5.598;2022-11-15T05:41:34;60.58;;;28.90;;
18929;SDS011;43305;52.186;5.598;2022-11-15T05:44:06;59.00;;;28.30;;
18929;SDS011;43305;52.186;5.598;2022-11-15T05:46:35;59.47;;;28.55;;
18929;SDS011;43305;52.186;5.598;2022-11-15T05:49:04;60.97;;;28.73;;
18929;SDS011;43305;52.186;5.598;2022-11-15T05:51:34;59.40;;;29.42;;
18929;SDS011;43305;52.186;5.598;2022-11-15T05:54:00;58.95;;;29.02;;
18929;SDS011;43305;52.186;5.598;2022-11-15T05:56:28;63.58;;;29.77;;
18929;SDS011;43305;52.186;5.598;2022-11-15T05:58:58;64.97;;;30.02;;
18929;SDS011;43305;52.186;5.598;2022-11-15T06:01:26;58.47;;;28.73;;
18929;SDS011;43305;52.186;5.598;2022-11-15T06:03:53;61.42;;;29.67;;
18929;SDS011;43305;52.186;5.598;2022-11-15T06:06:21;59.08;;;27.42;;
18929;SDS011;43305;52.186;5.598;2022-11-15T06:08:48;61.25;;;27.83;;
18929;SDS011;43305;52.186;5.598;2022-11-15T06:11:15;54.83;;;27.30;;
18929;SDS011;43305;52.186;5.598;2022-11-15T06:13:42;63.75;;;27.98;;
18929;SDS011;43305;52.186;5.598;2022-11-15T06:16:09;63.45;;;28.45;;
18929;SDS011;43305;52.186;5.598;2022-11-15T06:18:37;52.78;;;27.42;;
18929;SDS011;43305;52.186;5.598;2022-11-15T06:21:07;60.25;;;27.85;;
18929;SDS011;43305;52.186;5.598;2022-11-15T06:23:34;53.22;;;27.98;;
18929;SDS011;43305;52.186;5.598;2022-11-15T06:26:02;53.97;;;27.08;;
18929;SDS011;43305;52.186;5.598;2022-11-15T06:28:30;57.58;;;27.65;;
18929;SDS011;43305;52.186;5.598;2022-11-15T06:31:01;56.50;;;26.95;;
18929;SDS011;43305;52.186;5.598;2022-11-15T06:33:29;50.40;;;27.30;;
18929;SDS011;43305;52.186;5.598;2022-11-15T06:35:57;60.03;;;28.98;;
18929;SDS011;43305;52.186;5.598;2022-11-15T06:38:26;55.90;;;27.55;;
18929;SDS011;43305;52.186;5.598;2022-11-15T06:40:53;55.45;;;27.40;;
18929;SDS011;43305;52.186;5.598;2022-11-15T06:43:20;53.67;;;27.48;;
18929;SDS011;43305;52.186;5.598;2022-11-15T06:45:46;53.70;;;27.45;;
18929;SDS011;43305;52.186;5.598;2022-11-15T06:48:13;49.67;;;25.73;;
18929;SDS011;43305;52.186;5.598;2022-11-15T06:50:40;54.58;;;26.88;;
18929;SDS011;43305;52.186;5.598;2022-11-15T06:53:08;56.65;;;27.63;;
18929;SDS011;43305;52.186;5.598;2022-11-15T06:55:35;53.80;;;27.17;;
18929;SDS011;43305;52.186;5.598;2022-11-15T06:58:02;53.88;;;26.77;;
18929;SDS011;43305;52.186;5.598;2022-11-15T07:00:28;52.58;;;25.63;;
18929;SDS011;43305;52.186;5.598;2022-11-15T07:02:56;53.40;;;26.30;;
18929;SDS011;43305;52.186;5.598;2022-11-15T07:05:25;54.33;;;26.50;;
18929;SDS011;43305;52.186;5.598;2022-11-15T07:07:53;58.85;;;27.50;;
18929;SDS011;43305;52.186;5.598;2022-11-15T07:10:26;54.55;;;28.17;;
18929;SDS011;43305;52.186;5.598;2022-11-15T07:12:53;55.45;;;28.15;;
18929;SDS011;43305;52.186;5.598;2022-11-15T07:15:22;59.08;;;28.15;;
18929;SDS011;43305;52.186;5.598;2022-11-15T07:20:43;55.75;;;28.02;;
18929;SDS011;43305;52.186;5.598;2022-11-15T07:23:25;60.22;;;28.00;;
18929;SDS011;43305;52.186;5.598;2022-11-15T07:29:00;54.17;;;27.27;;
18929;SDS011;43305;52.186;5.598;2022-11-15T07:31:34;54.72;;;26.05;;
18929;SDS011;43305;52.186;5.598;2022-11-15T07:34:24;55.80;;;27.38;;
18929;SDS011;43305;52.186;5.598;2022-11-15T07:37:21;48.88;;;26.67;;
18929;SDS011;43305;52.186;5.598;2022-11-15T07:40:09;53.72;;;27.25;;
18929;SDS011;43305;52.186;5.598;2022-11-15T07:45:47;55.88;;;27.02;;
18929;SDS011;43305;52.186;5.598;2022-11-15T07:48:33;51.42;;;25.98;;
18929;SDS011;43305;52.186;5.598;2022-11-15T07:51:32;53.65;;;28.27;;
18929;SDS011;43305;52.186;5.598;2022-11-15T07:54:04;54.83;;;26.67;;
18929;SDS011;43305;52.186;5.598;2022-11-15T07:56:58;54.28;;;26.15;;
18929;SDS011;43305;52.186;5.598;2022-11-15T07:59:44;57.75;;;26.00;;
18929;SDS011;43305;52.186;5.598;2022-11-15T08:02:29;53.63;;;25.05;;
18929;SDS011;43305;52.186;5.598;2022-11-15T08:05:01;54.88;;;24.98;;
18929;SDS011;43305;52.186;5.598;2022-11-15T08:07:36;47.85;;;24.80;;
18929;SDS011;43305;52.186;5.598;2022-11-15T08:10:24;45.92;;;24.50;;
18929;SDS011;43305;52.186;5.598;2022-11-15T08:12:59;44.67;;;24.27;;
18929;SDS011;43305;52.186;5.598;2022-11-15T08:15:28;44.90;;;23.63;;
18929;SDS011;43305;52.186;5.598;2022-11-15T08:18:00;42.20;;;23.80;;
18929;SDS011;43305;52.186;5.598;2022-11-15T08:20:29;44.42;;;23.30;;
18929;SDS011;43305;52.186;5.598;2022-11-15T08:22:57;42.28;;;23.17;;
18929;SDS011;43305;52.186;5.598;2022-11-15T08:25:27;45.78;;;22.98;;
18929;SDS011;43305;52.186;5.598;2022-11-15T08:27:57;40.25;;;22.17;;
18929;SDS011;43305;52.186;5.598;2022-11-15T08:30:25;44.38;;;22.20;;
18929;SDS011;43305;52.186;5.598;2022-11-15T08:32:56;39.53;;;21.92;;
18929;SDS011;43305;52.186;5.598;2022-11-15T08:35:28;39.75;;;21.45;;
18929;SDS011;43305;52.186;5.598;2022-11-15T08:37:57;41.72;;;20.67;;
18929;SDS011;43305;52.186;5.598;2022-11-15T08:40:30;39.80;;;21.00;;
18929;SDS011;43305;52.186;5.598;2022-11-15T08:43:03;38.20;;;19.92;;
18929;SDS011;43305;52.186;5.598;2022-11-15T08:45:34;35.25;;;19.38;;
18929;SDS011;43305;52.186;5.598;2022-11-15T08:48:03;35.22;;;18.38;;
18929;SDS011;43305;52.186;5.598;2022-11-15T08:50:30;35.75;;;18.92;;
18929;SDS011;43305;52.186;5.598;2022-11-15T08:53:03;32.55;;;17.77;;
18929;SDS011;43305;52.186;5.598;2022-11-15T08:55:31;36.67;;;17.95;;
18929;SDS011;43305;52.186;5.598;2022-11-15T08:57:59;33.00;;;18.08;;
18929;SDS011;43305;52.186;5.598;2022-11-15T09:00:26;32.08;;;17.45;;
18929;SDS011;43305;52.186;5.598;2022-11-15T09:02:56;30.63;;;16.55;;
18929;SDS011;43305;52.186;5.598;2022-11-15T09:05:28;30.15;;;16.35;;
18929;SDS011;43305;52.186;5.598;2022-11-15T09:07:56;31.95;;;17.48;;
18929;SDS011;43305;52.186;5.598;2022-11-15T09:10:26;34.50;;;17.52;;
18929;SDS011;43305;52.186;5.598;2022-11-15T09:12:53;31.65;;;17.17;;
18929;SDS011;43305;52.186;5.598;2022-11-15T09:15:20;30.35;;;16.05;;
18929;SDS011;43305;52.186;5.598;2022-11-15T09:17:49;27.23;;;15.57;;
18929;SDS011;43305;52.186;5.598;2022-11-15T09:20:16;26.63;;;15.57;;
18929;SDS011;43305;52.186;5.598;2022-11-15T09:22:47;29.00;;;14.98;;
18929;SDS011;43305;52.186;5.598;2022-11-15T09:25:14;23.67;;;13.82;;
18929;SDS011;43305;52.186;5.598;2022-11-15T09:30:28;27.05;;;12.77;;
18929;SDS011;43305;52.186;5.598;2022-11-15T09:32:55;21.67;;;12.82;;
18929;SDS011;43305;52.186;5.598;2022-11-15T09:35:22;24.23;;;13.98;;
18929;SDS011;43305;52.186;5.598;2022-11-15T09:37:53;22.02;;;12.10;;
18929;SDS011;43305;52.186;5.598;2022-11-15T09:40:20;21.30;;;12.55;;
18929;SDS011;43305;52.186;5.598;2022-11-15T09:42:55;20.35;;;12.05;;
18929;SDS011;43305;52.186;5.598;2022-11-15T09:45:32;21.40;;;12.18;;
18929;SDS011;43305;52.186;5.598;2022-11-15T09:48:11;18.67;;;11.90;;
18929;SDS011;43305;52.186;5.598;2022-11-15T09:50:53;22.55;;;11.52;;
18929;SDS011;43305;52.186;5.598;2022-11-15T09:53:28;22.05;;;12.25;;
18929;SDS011;43305;52.186;5.598;2022-11-15T09:56:05;20.02;;;12.13;;
18929;SDS011;43305;52.186;5.598;2022-11-15T09:58:43;24.10;;;12.50;;
18929;SDS011;43305;52.186;5.598;2022-11-15T10:01:19;22.50;;;12.52;;
18929;SDS011;43305;52.186;5.598;2022-11-15T10:03:54;20.45;;;12.63;;
18929;SDS011;43305;52.186;5.598;2022-11-15T10:09:21;21.75;;;11.20;;
18929;SDS011;43305;52.186;5.598;2022-11-15T10:11:52;17.30;;;9.77;;
18929;SDS011;43305;52.186;5.598;2022-11-15T10:14:20;17.48;;;9.45;;
18929;SDS011;43305;52.186;5.598;2022-11-15T10:19:44;17.05;;;9.52;;
18929;SDS011;43305;52.186;5.598;2022-11-15T10:22:21;13.00;;;8.13;;
18929;SDS011;43305;52.186;5.598;2022-11-15T10:25:09;11.20;;;7.55;;
18929;SDS011;43305;52.186;5.598;2022-11-15T10:27:44;12.90;;;7.57;;
18929;SDS011;43305;52.186;5.598;2022-11-15T10:30:17;13.38;;;6.60;;
18929;SDS011;43305;52.186;5.598;2022-11-15T10:32:50;10.77;;;5.88;;
18929;SDS011;43305;52.186;5.598;2022-11-15T10:35:21;11.77;;;5.90;;
18929;SDS011;43305;52.186;5.598;2022-11-15T10:37:50;10.52;;;6.07;;
18929;SDS011;43305;52.186;5.598;2022-11-15T10:40:20;13.10;;;5.85;;
18929;SDS011;43305;52.186;5.598;2022-11-15T10:42:48;11.18;;;5.13;;
18929;SDS011;43305;52.186;5.598;2022-11-15T10:45:30;9.55;;;5.25;;
18929;SDS011;43305;52.186;5.598;2022-11-15T10:50:48;8.55;;;4.03;;
18929;SDS011;43305;52.186;5.598;2022-11-15T10:53:19;8.63;;;4.32;;
18929;SDS011;43305;52.186;5.598;2022-11-15T10:55:56;8.02;;;4.10;;
18929;SDS011;43305;52.186;5.598;2022-11-15T10:58:30;6.25;;;3.33;;
18929;SDS011;43305;52.186;5.598;2022-11-15T11:03:43;7.28;;;3.55;;
18929;SDS011;43305;52.186;5.598;2022-11-15T11:06:11;6.30;;;3.15;;
18929;SDS011;43305;52.186;5.598;2022-11-15T11:08:40;6.55;;;3.00;;
18929;SDS011;43305;52.186;5.598;2022-11-15T11:11:20;7.95;;;3.50;;
18929;SDS011;43305;52.186;5.598;2022-11-15T11:13:47;6.45;;;3.22;;
18929;SDS011;43305;52.186;5.598;2022-11-15T11:16:18;6.07;;;3.25;;
18929;SDS011;43305;52.186;5.598;2022-11-15T11:19:04;7.25;;;3.50;;
18929;SDS011;43305;52.186;5.598;2022-11-15T11:21:46;6.80;;;3.13;;
18929;SDS011;43305;52.186;5.598;2022-11-15T11:24:22;6.97;;;3.40;;
18929;SDS011;43305;52.186;5.598;2022-11-15T11:27:05;6.88;;;3.38;;
18929;SDS011;43305;52.186;5.598;2022-11-15T11:29:43;5.68;;;3.58;;
18929;SDS011;43305;52.186;5.598;2022-11-15T11:32:23;7.10;;;3.38;;
18929;SDS011;43305;52.186;5.598;2022-11-15T11:35:08;4.80;;;2.70;;
18929;SDS011;43305;52.186;5.598;2022-11-15T11:37:40;5.43;;;2.97;;
18929;SDS011;43305;52.186;5.598;2022-11-15T11:40:19;4.55;;;2.58;;
18929;SDS011;43305;52.186;5.598;2022-11-15T11:42:56;7.45;;;2.75;;
18929;SDS011;43305;52.186;5.598;2022-11-15T11:48:21;4.57;;;2.35;;
18929;SDS011;43305;52.186;5.598;2022-11-15T11:50:59;5.22;;;2.40;;
18929;SDS011;43305;52.186;5.598;2022-11-15T11:53:33;7.85;;;2.03;;
18929;SDS011;43305;52.186;5.598;2022-11-15T11:56:07;9.00;;;1.95;;
18929;SDS011;43305;52.186;5.598;2022-11-15T11:58:44;3.40;;;1.90;;
18929;SDS011;43305;52.186;5.598;2022-11-15T12:01:16;5.85;;;1.98;;
18929;SDS011;43305;52.186;5.598;2022-11-15T12:03:50;9.07;;;1.98;;
18929;SDS011;43305;52.186;5.598;2022-11-15T12:06:23;6.15;;;2.03;;
18929;SDS011;43305;52.186;5.598;2022-11-15T12:08:56;5.25;;;2.00;;
18929;SDS011;43305;52.186;5.598;2022-11-15T12:11:28;3.15;;;2.00;;
18929;SDS011;43305;52.186;5.598;2022-11-15T12:14:03;3.72;;;1.70;;
18929;SDS011;43305;52.186;5.598;2022-11-15T12:16:35;5.25;;;1.90;;
18929;SDS011;43305;52.186;5.598;2022-11-15T12:19:04;3.58;;;1.77;;
18929;SDS011;43305;52.186;5.598;2022-11-15T12:21:33;7.03;;;1.90;;
18929;SDS011;43305;52.186;5.598;2022-11-15T12:24:06;6.78;;;1.95;;
18929;SDS011;43305;52.186;5.598;2022-11-15T12:26:40;4.45;;;2.08;;
18929;SDS011;43305;52.186;5.598;2022-11-15T12:29:15;8.25;;;2.10;;
18929;SDS011;43305;52.186;5.598;2022-11-15T12:31:48;6.35;;;1.90;;
18929;SDS011;43305;52.186;5.598;2022-11-15T12:40:16;8.50;;;1.60;;
18929;SDS011;43305;52.186;5.598;2022-11-15T12:45:32;8.45;;;1.60;;
18929;SDS011;43305;52.186;5.598;2022-11-15T12:50:58;6.05;;;1.50;;
18929;SDS011;43305;52.186;5.598;2022-11-15T12:53:26;4.63;;;1.35;;
18929;SDS011;43305;52.186;5.598;2022-11-15T12:58:52;3.35;;;1.30;;
18929;SDS011;43305;52.186;5.598;2022-11-15T13:07:01;7.80;;;1.42;;
18929;SDS011;43305;52.186;5.598;2022-11-15T13:18:18;5.50;;;1.67;;
18929;SDS011;43305;52.186;5.598;2022-11-15T13:20:55;3.70;;;1.20;;
18929;SDS011;43305;52.186;5.598;2022-11-15T13:23:21;4.40;;;1.30;;
18929;SDS011;43305;52.186;5.598;2022-11-15T13:25:55;4.07;;;1.50;;
18929;SDS011;43305;52.186;5.598;2022-11-15T13:28:32;6.50;;;1.20;;
18929;SDS011;43305;52.186;5.598;2022-11-15T13:31:03;3.85;;;1.25;;
18929;SDS011;43305;52.186;5.598;2022-11-15T13:33:45;6.00;;;1.08;;
18929;SDS011;43305;52.186;5.598;2022-11-15T13:36:14;5.38;;;1.30;;
18929;SDS011;43305;52.186;5.598;2022-11-15T13:38:45;7.20;;;1.17;;
18929;SDS011;43305;52.186;5.598;2022-11-15T13:41:22;4.53;;;1.10;;
18929;SDS011;43305;52.186;5.598;2022-11-15T13:43:51;5.32;;;1.10;;
18929;SDS011;43305;52.186;5.598;2022-11-15T13:46:20;4.60;;;1.20;;
18929;SDS011;43305;52.186;5.598;2022-11-15T13:48:51;4.88;;;1.05;;
18929;SDS011;43305;52.186;5.598;2022-11-15T13:51:21;5.20;;;1.20;;
18929;SDS011;43305;52.186;5.598;2022-11-15T13:53:52;2.85;;;1.15;;
18929;SDS011;43305;52.186;5.598;2022-11-15T13:56:22;3.72;;;1.10;;
18929;SDS011;43305;52.186;5.598;2022-11-15T13:58:51;6.68;;;1.42;;
18929;SDS011;43305;52.186;5.598;2022-11-15T14:01:20;4.82;;;1.02;;
18929;SDS011;43305;52.186;5.598;2022-11-15T14:03:50;3.78;;;0.98;;
18929;SDS011;43305;52.186;5.598;2022-11-15T14:06:22;4.13;;;0.90;;
18929;SDS011;43305;52.186;5.598;2022-11-15T14:08:59;5.47;;;1.10;;
18929;SDS011;43305;52.186;5.598;2022-11-15T14:11:28;4.47;;;0.98;;
18929;SDS011;43305;52.186;5.598;2022-11-15T14:14:01;3.60;;;1.10;;
18929;SDS011;43305;52.186;5.598;2022-11-15T14:16:37;4.63;;;1.25;;
18929;SDS011;43305;52.186;5.598;2022-11-15T14:19:06;7.45;;;1.50;;
18929;SDS011;43305;52.186;5.598;2022-11-15T14:21:38;4.47;;;0.98;;
18929;SDS011;43305;52.186;5.598;2022-11-15T14:24:40;7.15;;;1.10;;
18929;SDS011;43305;52.186;5.598;2022-11-15T14:27:17;5.13;;;1.20;;
18929;SDS011;43305;52.186;5.598;2022-11-15T14:29:46;7.30;;;1.10;;
18929;SDS011;43305;52.186;5.598;2022-11-15T14:32:14;7.15;;;1.20;;
18929;SDS011;43305;52.186;5.598;2022-11-15T14:34:43;2.58;;;1.00;;
18929;SDS011;43305;52.186;5.598;2022-11-15T14:37:18;4.97;;;1.17;;
18929;SDS011;43305;52.186;5.598;2022-11-15T14:39:46;4.90;;;1.02;;
18929;SDS011;43305;52.186;5.598;2022-11-15T14:42:13;4.93;;;1.27;;
18929;SDS011;43305;52.186;5.598;2022-11-15T14:44:41;2.88;;;1.10;;
18929;SDS011;43305;52.186;5.598;2022-11-15T14:47:07;3.05;;;0.88;;
18929;SDS011;43305;52.186;5.598;2022-11-15T14:49:34;6.43;;;1.10;;
18929;SDS011;43305;52.186;5.598;2022-11-15T14:52:01;3.03;;;0.93;;
18929;SDS011;43305;52.186;5.598;2022-11-15T14:54:29;3.10;;;0.80;;
18929;SDS011;43305;52.186;5.598;2022-11-15T14:56:56;4.85;;;1.20;;
18929;SDS011;43305;52.186;5.598;2022-11-15T14:59:23;4.93;;;1.10;;
18929;SDS011;43305;52.186;5.598;2022-11-15T15:01:50;3.47;;;0.80;;
18929;SDS011;43305;52.186;5.598;2022-11-15T15:04:17;5.18;;;1.30;;
18929;SDS011;43305;52.186;5.598;2022-11-15T15:06:44;4.50;;;0.98;;
18929;SDS011;43305;52.186;5.598;2022-11-15T15:09:11;3.15;;;1.20;;
18929;SDS011;43305;52.186;5.598;2022-11-15T15:11:39;4.80;;;1.40;;
18929;SDS011;43305;52.186;5.598;2022-11-15T15:14:05;6.32;;;1.52;;
18929;SDS011;43305;52.186;5.598;2022-11-15T15:16:34;3.75;;;1.38;;
18929;SDS011;43305;52.186;5.598;2022-11-15T15:19:00;4.00;;;1.20;;
18929;SDS011;43305;52.186;5.598;2022-11-15T15:21:27;4.80;;;1.27;;
18929;SDS011;43305;52.186;5.598;2022-11-15T15:23:56;5.40;;;1.50;;
18929;SDS011;43305;52.186;5.598;2022-11-15T15:26:24;3.47;;;1.65;;
18929;SDS011;43305;52.186;5.598;2022-11-15T15:28:53;4.38;;;1.42;;
18929;SDS011;43305;52.186;5.598;2022-11-15T15:31:19;6.40;;;1.30;;
18929;SDS011;43305;52.186;5.598;2022-11-15T15:33:49;2.58;;;0.90;;
18929;SDS011;43305;52.186;5.598;2022-11-15T15:36:17;6.18;;;1.85;;
18929;SDS011;43305;52.186;5.598;2022-11-15T15:38:44;2.53;;;1.42;;
18929;SDS011;43305;52.186;5.598;2022-11-15T15:41:12;6.07;;;1.23;;
18929;SDS011;43305;52.186;5.598;2022-11-15T15:43:39;5.10;;;1.38;;
18929;SDS011;43305;52.186;5.598;2022-11-15T15:46:08;5.90;;;1.30;;
18929;SDS011;43305;52.186;5.598;2022-11-15T15:48:37;3.50;;;1.20;;
18929;SDS011;43305;52.186;5.598;2022-11-15T15:51:04;6.20;;;1.30;;
18929;SDS011;43305;52.186;5.598;2022-11-15T15:53:34;3.42;;;1.40;;
18929;SDS011;43305;52.186;5.598;2022-11-15T15:56:01;8.63;;;3.00;;
18929;SDS011;43305;52.186;5.598;2022-11-15T15:58:28;6.18;;;2.45;;